Time;durP1;ratioP1;P1;durP2;ratioP2;P2;SDS_P1;SDS_P2;PMS_P1;PMS_P2;Temp;Humidity;BMP_temperature;BMP_pressure;BME280_temperature;BME280_humidity;BME280_pressure;Samples;Min_cycle;Max_cycle;Signal;HPM_P1;HPM_P2
2023/12/15 00:02:37;;;;;;;1.80;0.90;;;;;;;5.30;81.19;94552.88;5148194;27;20393;-73
2023/12/15 00:05:03;;;;;;;2.17;1.02;;;;;;;5.20;81.52;94551.81;5140157;27;20043;-73
2023/12/15 00:07:28;;;;;;;1.73;0.95;;;;;;;4.98;82.47;94554.97;5108454;28;20500;-73
2023/12/15 00:09:54;;;;;;;1.48;0.80;;;;;;;5.10;82.76;94545.66;5126999;27;20084;-73
2023/12/15 00:12:19;;;;;;;2.35;1.30;;;;;;;5.04;83.56;94543.44;5128628;27;20073;-73
2023/12/15 00:14:44;;;;;;;2.05;1.10;;;;;;;5.00;83.21;94547.16;5139673;27;20039;-73
2023/12/15 00:17:10;;;;;;;1.85;1.10;;;;;;;5.11;83.46;94555.84;5142257;27;20254;-74
2023/12/15 00:19:35;;;;;;;1.58;0.80;;;;;;;5.16;83.31;94547.81;5126054;28;20016;-73
2023/12/15 00:22:01;;;;;;;3.03;1.40;;;;;;;5.20;83.10;94556.97;5112687;27;20039;-73
2023/12/15 00:24:26;;;;;;;2.28;1.10;;;;;;;4.86;84.19;94564.31;5141523;27;20030;-73
2023/12/15 00:26:51;;;;;;;2.35;1.02;;;;;;;4.66;84.50;94541.63;5129050;27;20069;-73
2023/12/15 00:29:18;;;;;;;2.25;1.20;;;;;;;4.74;84.63;94562.53;5125594;28;20027;-73
2023/12/15 00:31:44;;;;;;;2.42;1.20;;;;;;;4.76;84.97;94550.38;5097084;28;20042;-73
2023/12/15 00:34:09;;;;;;;1.98;1.08;;;;;;;4.99;84.65;94574.66;5107801;27;20027;-73
2023/12/15 00:36:34;;;;;;;1.38;0.80;;;;;;;4.92;84.71;94565.69;5129379;27;20492;-73
2023/12/15 00:39:00;;;;;;;1.92;1.10;;;;;;;4.86;84.41;94563.50;5109995;28;20507;-73
2023/12/15 00:41:26;;;;;;;1.85;1.00;;;;;;;4.92;84.97;94568.25;5103131;27;20035;-73
2023/12/15 00:43:52;;;;;;;1.20;0.77;;;;;;;5.07;84.84;94576.72;5134488;27;20030;-73
2023/12/15 00:46:17;;;;;;;2.00;1.08;;;;;;;5.10;84.61;94577.38;5124481;27;20039;-73
2023/12/15 00:48:42;;;;;;;2.17;1.25;;;;;;;4.93;85.22;94583.59;5137699;27;20020;-73
2023/12/15 00:51:08;;;;;;;1.25;0.90;;;;;;;5.02;85.27;94594.25;5129362;27;20034;-73
2023/12/15 00:53:33;;;;;;;2.42;0.93;;;;;;;4.81;85.61;94581.81;5136392;27;20026;-73
2023/12/15 00:56:00;;;;;;;1.75;1.15;;;;;;;4.88;85.40;94592.56;5120734;28;20440;-73
2023/12/15 00:58:25;;;;;;;2.42;1.30;;;;;;;4.85;85.77;94595.31;5111506;28;20485;-73
2023/12/15 01:00:51;;;;;;;1.95;1.08;;;;;;;4.87;85.81;94602.00;5125217;27;20063;-73
2023/12/15 01:03:16;;;;;;;2.35;0.93;;;;;;;4.98;85.58;94608.22;5117907;27;20035;-73
2023/12/15 01:05:41;;;;;;;1.45;1.00;;;;;;;4.98;84.92;94597.91;5118517;27;20074;-73
2023/12/15 01:08:07;;;;;;;3.10;1.02;;;;;;;5.03;84.81;94595.88;5095939;28;20020;-73
2023/12/15 01:10:32;;;;;;;2.00;1.10;;;;;;;5.13;84.73;94608.06;5116530;27;20027;-72
2023/12/15 01:12:58;;;;;;;2.42;1.00;;;;;;;5.03;84.74;94595.88;5126780;27;20480;-73
2023/12/15 01:15:23;;;;;;;2.20;1.20;;;;;;;4.72;85.70;94608.13;5113973;27;20031;-72
2023/12/15 01:17:48;;;;;;;2.58;1.33;;;;;;;4.92;85.40;94607.69;5112893;27;20405;-73
2023/12/15 01:20:14;;;;;;;2.10;1.50;;;;;;;4.92;85.66;94610.25;5114331;27;20088;-73
2023/12/15 01:22:39;;;;;;;2.20;1.38;;;;;;;5.00;85.79;94603.81;5122880;27;20028;-73
2023/12/15 01:25:05;;;;;;;1.95;1.30;;;;;;;4.98;85.54;94600.50;5095706;28;20036;-73
2023/12/15 01:27:30;;;;;;;1.85;1.23;;;;;;;5.02;85.65;94618.22;5096641;28;20035;-73
2023/12/15 01:29:56;;;;;;;2.15;1.30;;;;;;;5.04;85.69;94618.13;5131135;27;20039;-73
2023/12/15 01:32:21;;;;;;;1.65;0.95;;;;;;;5.01;85.79;94608.84;5121810;27;20028;-73
2023/12/15 01:34:47;;;;;;;2.10;1.00;;;;;;;5.05;85.59;94625.75;5112386;28;20489;-73
2023/12/15 01:37:12;;;;;;;1.80;1.10;;;;;;;4.91;85.19;94585.44;5112354;28;20530;-73
2023/12/15 01:39:37;;;;;;;1.67;1.20;;;;;;;5.06;85.52;94621.44;5099112;28;20119;-73
2023/12/15 01:42:03;;;;;;;1.60;1.00;;;;;;;5.16;85.78;94622.50;5112157;27;20424;-73
2023/12/15 01:44:29;;;;;;;2.40;1.20;;;;;;;5.12;85.36;94639.06;5112161;27;20594;-73
2023/12/15 01:46:54;;;;;;;1.35;1.00;;;;;;;5.28;84.85;94632.00;5111574;28;20036;-73
2023/12/15 01:49:19;;;;;;;1.90;1.30;;;;;;;5.23;84.64;94630.63;5122895;27;20035;-73
2023/12/15 01:51:45;;;;;;;2.90;2.25;;;;;;;5.08;84.52;94633.28;5103840;27;20035;-73
2023/12/15 01:54:10;;;;;;;2.42;1.83;;;;;;;5.19;84.52;94637.75;5114827;27;20077;-73
2023/12/15 01:56:36;;;;;;;2.03;1.27;;;;;;;5.33;84.74;94640.25;5118223;27;20035;-73
2023/12/15 01:59:01;;;;;;;3.38;1.90;;;;;;;5.18;84.52;94627.53;5122826;27;20023;-73
2023/12/15 02:01:27;;;;;;;2.00;1.60;;;;;;;5.17;85.19;94629.28;5111707;27;20132;-73
2023/12/15 02:03:52;;;;;;;2.38;1.70;;;;;;;5.09;84.77;94627.19;5113088;28;20035;-73
2023/12/15 02:06:17;;;;;;;2.00;1.40;;;;;;;5.16;84.86;94627.66;5112926;27;20032;-73
2023/12/15 02:08:44;;;;;;;2.95;1.40;;;;;;;5.12;85.01;94631.31;5110333;28;20031;-73
2023/12/15 02:11:09;;;;;;;3.20;2.63;;;;;;;4.93;85.07;94640.25;5105074;27;20035;-73
2023/12/15 02:13:34;;;;;;;2.53;1.80;;;;;;;5.05;85.01;94645.53;5114479;28;20023;-72
2023/12/15 02:16:00;;;;;;;1.83;1.40;;;;;;;5.07;84.91;94633.38;5112913;27;20019;-73
2023/12/15 02:18:25;;;;;;;2.00;1.40;;;;;;;5.10;84.65;94634.00;5091070;28;20085;-73
2023/12/15 02:20:51;;;;;;;2.25;1.50;;;;;;;5.17;84.86;94652.47;5095485;27;20027;-73
2023/12/15 02:23:16;;;;;;;2.20;1.50;;;;;;;5.15;84.44;94641.44;5130601;27;20031;-73
2023/12/15 02:25:42;;;;;;;1.73;1.20;;;;;;;5.06;85.08;94648.00;5122678;27;20034;-73
2023/12/15 02:28:07;;;;;;;1.80;1.23;;;;;;;5.05;85.13;94661.81;5093179;27;20043;-73
2023/12/15 02:30:32;;;;;;;1.45;0.98;;;;;;;4.92;84.90;94666.06;5111500;27;20053;-73
2023/12/15 02:32:58;;;;;;;1.60;1.25;;;;;;;4.92;85.05;94666.88;5100501;27;20027;-73
2023/12/15 02:35:23;;;;;;;2.08;1.20;;;;;;;5.07;85.11;94665.13;5122958;27;20501;-73
2023/12/15 02:37:49;;;;;;;1.90;1.30;;;;;;;5.12;85.03;94665.63;5111366;27;20038;-73
2023/12/15 02:40:14;;;;;;;1.85;1.50;;;;;;;5.06;84.76;94673.75;5130120;27;20416;-73
2023/12/15 02:42:40;;;;;;;1.90;1.45;;;;;;;4.97;84.80;94652.91;5112073;27;20528;-73
2023/12/15 02:45:06;;;;;;;1.70;1.33;;;;;;;5.05;85.29;94666.13;5129331;27;20043;-73
2023/12/15 02:47:31;;;;;;;2.10;1.60;;;;;;;4.90;85.29;94668.75;5080223;28;20028;-73
2023/12/15 02:49:57;;;;;;;2.30;1.90;;;;;;;5.03;85.01;94675.69;5107350;27;20024;-73
2023/12/15 02:52:22;;;;;;;2.95;2.30;;;;;;;5.00;84.60;94684.44;5110829;28;20098;-73
2023/12/15 02:54:47;;;;;;;3.35;2.55;;;;;;;5.08;84.39;94681.38;5095925;27;20024;-73
2023/12/15 02:57:13;;;;;;;3.78;2.63;;;;;;;4.93;84.10;94658.25;5122165;27;20042;-73
2023/12/15 02:59:38;;;;;;;3.30;2.38;;;;;;;5.11;84.30;94687.16;5121278;27;20023;-73
2023/12/15 03:02:04;;;;;;;3.40;2.50;;;;;;;5.10;83.56;94688.09;5115757;27;20109;-73
2023/12/15 03:04:30;;;;;;;3.90;2.90;;;;;;;4.99;85.07;94700.00;5110575;28;20027;-72
2023/12/15 03:06:55;;;;;;;4.55;3.05;;;;;;;5.16;84.26;94704.91;5122569;27;20027;-73
2023/12/15 03:09:21;;;;;;;5.13;3.33;;;;;;;5.04;84.32;94690.22;5129055;27;20076;-73
2023/12/15 03:11:46;;;;;;;4.78;3.70;;;;;;;5.07;84.29;94711.47;5119224;27;20031;-73
2023/12/15 03:14:12;;;;;;;5.00;3.67;;;;;;;5.08;83.83;94694.25;5110368;28;20019;-73
2023/12/15 03:16:37;;;;;;;4.50;4.10;;;;;;;5.03;84.55;94698.88;5084893;27;20035;-73
2023/12/15 03:19:03;;;;;;;6.72;4.22;;;;;;;5.17;83.35;94701.41;5115746;27;20024;-73
2023/12/15 03:21:28;;;;;;;8.65;5.90;;;;;;;5.11;83.85;94705.19;5110039;28;20050;-73
2023/12/15 03:23:53;;;;;;;5.57;4.05;;;;;;;5.00;84.71;94705.03;5113255;27;20036;-73
2023/12/15 03:26:19;;;;;;;5.10;3.80;;;;;;;5.13;83.91;94711.06;5115820;27;20039;-73
2023/12/15 03:28:44;;;;;;;4.80;3.38;;;;;;;5.22;83.64;94712.25;5130944;27;20028;-73
2023/12/15 03:31:10;;;;;;;4.00;3.55;;;;;;;5.02;84.04;94703.19;5084629;28;20097;-73
2023/12/15 03:33:35;;;;;;;5.72;3.72;;;;;;;5.19;84.18;94719.34;5089975;28;20035;-73
2023/12/15 03:36:04;;;;;;;4.90;3.55;;;;;;;5.28;83.71;94719.56;5102831;28;20035;-73
2023/12/15 03:38:30;;;;;;;4.03;3.17;;;;;;;5.12;83.93;94711.97;5076806;28;20024;-73
2023/12/15 03:40:56;;;;;;;5.18;3.55;;;;;;;5.25;83.97;94713.78;5093230;28;20066;-73
2023/12/15 03:43:21;;;;;;;4.90;3.90;;;;;;;5.05;84.57;94722.78;5117838;28;20035;-73
2023/12/15 03:45:46;;;;;;;5.35;3.83;;;;;;;4.95;84.46;94707.06;5089554;28;20031;-73
2023/12/15 03:48:12;;;;;;;5.57;4.15;;;;;;;4.85;85.44;94717.13;5072906;28;20260;-73
2023/12/15 03:50:37;;;;;;;7.32;5.15;;;;;;;4.84;84.81;94723.16;5072873;28;20028;-73
2023/12/15 03:53:03;;;;;;;6.63;5.18;;;;;;;5.04;85.07;94727.09;5073669;28;20031;-73
2023/12/15 03:55:28;;;;;;;8.90;6.57;;;;;;;5.10;83.67;94729.28;5089712;28;20028;-73
2023/12/15 03:57:53;;;;;;;7.97;5.75;;;;;;;5.09;83.68;94734.53;5089801;28;20032;-74
2023/12/15 04:00:20;;;;;;;8.20;6.10;;;;;;;5.01;84.67;94731.59;5089228;28;20046;-73
2023/12/15 04:02:46;;;;;;;7.35;5.82;;;;;;;4.88;85.44;94731.56;5108528;28;20531;-73
2023/12/15 04:05:12;;;;;;;7.10;5.47;;;;;;;4.82;85.23;94737.91;5076085;28;20035;-73
2023/12/15 04:07:37;;;;;;;7.22;5.53;;;;;;;4.90;84.47;94738.25;5092946;28;20030;-73
2023/12/15 04:10:03;;;;;;;8.07;6.03;;;;;;;4.83;84.75;94725.84;5107935;28;20061;-73
2023/12/15 04:12:28;;;;;;;8.90;6.13;;;;;;;4.86;84.54;94741.09;5108269;28;20039;-73
2023/12/15 04:14:54;;;;;;;10.90;6.95;;;;;;;4.92;83.90;94745.88;5107742;28;20456;-73
2023/12/15 04:17:19;;;;;;;8.15;5.72;;;;;;;4.92;83.10;94738.97;5108226;28;20031;-73
2023/12/15 04:19:45;;;;;;;9.00;6.43;;;;;;;4.97;83.40;94745.59;5117351;28;20477;-73
2023/12/15 04:22:10;;;;;;;9.40;6.85;;;;;;;4.73;85.17;94743.59;5112130;28;20231;-73
2023/12/15 04:24:35;;;;;;;9.80;6.80;;;;;;;4.73;84.26;94751.31;5095389;28;20026;-73
2023/12/15 04:27:01;;;;;;;9.27;7.05;;;;;;;4.91;83.92;94747.63;5110385;28;20093;-72
2023/12/15 04:29:26;;;;;;;9.45;7.43;;;;;;;4.77;83.72;94737.34;5122280;28;20023;-73
2023/12/15 04:31:52;;;;;;;8.65;6.78;;;;;;;4.90;84.09;94747.72;5123152;28;20043;-73
2023/12/15 04:34:17;;;;;;;8.50;6.20;;;;;;;4.87;84.74;94747.91;5113125;28;20030;-73
2023/12/15 04:36:43;;;;;;;10.73;8.02;;;;;;;4.91;84.32;94744.22;5111153;27;20031;-73
2023/12/15 04:39:08;;;;;;;10.02;7.07;;;;;;;4.72;84.39;94730.84;5113558;28;20020;-73
2023/12/15 04:41:34;;;;;;;8.70;6.93;;;;;;;5.10;83.88;94754.22;5096612;28;20459;-73
2023/12/15 04:43:59;;;;;;;10.95;7.57;;;;;;;4.84;85.00;94751.47;5114647;28;20034;-73
2023/12/15 04:46:25;;;;;;;9.07;6.95;;;;;;;4.84;84.70;94766.09;5113503;28;20416;-73
2023/12/15 04:48:51;;;;;;;9.30;7.38;;;;;;;5.07;84.03;94768.13;5116142;27;20023;-73
2023/12/15 04:51:17;;;;;;;10.25;6.95;;;;;;;4.77;84.09;94731.38;5133763;27;20063;-73
2023/12/15 04:53:43;;;;;;;9.05;7.30;;;;;;;5.01;84.75;94763.31;5133835;27;20034;-73
2023/12/15 04:56:09;;;;;;;10.60;7.95;;;;;;;5.03;83.90;94778.69;5116776;27;20533;-73
2023/12/15 04:58:36;;;;;;;8.35;6.43;;;;;;;4.80;83.51;94765.47;5133759;27;20023;-73
2023/12/15 05:01:02;;;;;;;8.10;6.97;;;;;;;5.01;83.63;94780.53;5119502;27;20168;-73
2023/12/15 05:03:28;;;;;;;9.10;7.25;;;;;;;4.92;84.29;94795.59;5113084;28;20023;-73
2023/12/15 05:05:53;;;;;;;10.02;7.85;;;;;;;4.95;84.29;94783.47;5112977;28;20042;-73
2023/12/15 05:08:19;;;;;;;12.35;8.32;;;;;;;4.91;83.85;94778.53;5112831;28;20493;-73
2023/12/15 05:10:45;;;;;;;9.82;7.20;;;;;;;5.03;84.23;94783.84;5089457;28;20042;-73
2023/12/15 05:13:10;;;;;;;10.80;7.47;;;;;;;5.05;82.70;94789.72;5087331;28;20469;-73
2023/12/15 05:15:37;;;;;;;10.82;7.85;;;;;;;4.86;83.75;94796.00;5100356;28;20474;-73
2023/12/15 05:18:03;;;;;;;9.35;7.25;;;;;;;4.95;83.67;94796.34;5100980;28;20098;-74
2023/12/15 05:20:28;;;;;;;9.13;6.72;;;;;;;5.03;83.06;94794.13;5096999;28;20477;-73
2023/12/15 05:22:54;;;;;;;10.30;7.70;;;;;;;4.87;83.92;94797.63;5106969;28;20027;-74
2023/12/15 05:25:21;;;;;;;10.50;7.65;;;;;;;4.97;83.03;94799.66;5100466;27;20074;-75
2023/12/15 05:27:47;;;;;;;11.63;7.90;;;;;;;5.12;82.66;94801.28;5094032;28;20028;-75
2023/12/15 05:30:13;;;;;;;9.75;7.40;;;;;;;5.02;83.14;94807.94;5096840;28;20530;-75
2023/12/15 05:32:38;;;;;;;8.90;7.25;;;;;;;5.00;83.21;94807.19;5107238;28;20035;-75
2023/12/15 05:35:07;;;;;;;7.85;5.85;;;;;;;5.07;82.29;94811.03;5105201;28;20032;-75
2023/12/15 05:37:33;;;;;;;8.40;5.57;;;;;;;4.78;82.50;94798.19;5085112;28;20434;-75
2023/12/15 05:39:58;;;;;;;8.50;6.70;;;;;;;4.95;82.82;94809.22;5080234;28;20031;-74
2023/12/15 05:42:27;;;;;;;10.68;7.57;;;;;;;4.82;82.06;94784.22;5110000;28;20023;-72
2023/12/15 05:44:53;;;;;;;12.32;6.95;;;;;;;5.04;82.46;94822.38;5093184;28;20274;-73
2023/12/15 05:47:18;;;;;;;8.15;6.05;;;;;;;4.92;82.15;94816.19;5115053;27;20027;-72
2023/12/15 05:49:43;;;;;;;9.30;6.60;;;;;;;5.03;82.51;94823.28;5112184;27;20015;-74
2023/12/15 05:52:09;;;;;;;8.18;6.35;;;;;;;4.85;83.09;94803.81;5117516;27;20104;-74
2023/12/15 05:54:37;;;;;;;7.95;5.57;;;;;;;4.81;83.26;94821.16;5095301;27;20055;-74
2023/12/15 05:57:03;;;;;;;8.23;6.18;;;;;;;4.81;82.66;94807.47;5112493;27;20066;-74
2023/12/15 05:59:28;;;;;;;7.75;5.63;;;;;;;4.99;82.42;94831.31;5093980;28;20110;-74
2023/12/15 06:01:53;;;;;;;8.63;6.65;;;;;;;4.99;82.07;94833.88;5109414;28;20108;-73
2023/12/15 06:04:19;;;;;;;7.95;6.15;;;;;;;4.86;82.98;94833.78;5087314;27;20165;-73
2023/12/15 06:06:44;;;;;;;9.50;6.45;;;;;;;4.77;82.98;94842.88;5120279;27;20112;-73
2023/12/15 06:09:10;;;;;;;9.63;6.72;;;;;;;4.89;82.25;94844.72;5076458;28;20412;-73
2023/12/15 06:11:42;;;;;;;9.52;7.43;;;;;;;4.69;82.99;94842.50;5112998;27;20031;-73
2023/12/15 06:14:08;;;;;;;9.95;7.45;;;;;;;4.58;83.17;94837.97;5107921;28;20031;-73
2023/12/15 06:16:33;;;;;;;10.15;7.40;;;;;;;4.62;83.64;94838.63;5118743;27;20039;-73
2023/12/15 06:18:58;;;;;;;10.85;6.95;;;;;;;4.71;83.32;94838.09;5093098;28;20032;-73
2023/12/15 06:21:25;;;;;;;11.15;7.18;;;;;;;4.67;83.25;94849.47;5119600;27;20038;-73
2023/12/15 06:23:51;;;;;;;9.27;6.88;;;;;;;4.70;83.22;94847.53;5092476;28;20484;-72
2023/12/15 06:26:20;;;;;;;11.00;8.00;;;;;;;4.70;83.17;94850.13;5095288;28;20031;-73
2023/12/15 06:28:46;;;;;;;10.25;7.32;;;;;;;4.65;83.34;94834.16;5077147;28;20515;-73
2023/12/15 06:31:11;;;;;;;9.70;7.68;;;;;;;4.71;83.66;94856.13;5117519;27;20065;-73
2023/12/15 06:33:36;;;;;;;10.27;6.88;;;;;;;4.55;83.74;94853.59;5112010;27;20496;-72
2023/12/15 06:36:02;;;;;;;11.60;7.25;;;;;;;4.68;83.36;94857.13;5113726;27;20032;-73
2023/12/15 06:38:27;;;;;;;10.13;7.07;;;;;;;4.92;82.72;94878.00;5111096;28;20028;-73
2023/12/15 06:40:53;;;;;;;9.30;6.53;;;;;;;4.86;82.61;94877.53;5101841;28;20583;-73
2023/12/15 06:43:18;;;;;;;10.43;7.50;;;;;;;4.74;82.75;94876.53;5107857;28;20035;-73
2023/12/15 06:45:44;;;;;;;9.75;6.80;;;;;;;4.77;83.67;94883.25;5087788;28;20110;-73
2023/12/15 06:48:09;;;;;;;10.32;8.07;;;;;;;4.54;83.81;94879.41;5097690;27;20037;-73
2023/12/15 06:50:34;;;;;;;8.30;6.65;;;;;;;4.50;83.85;94872.81;5130507;27;20031;-73
2023/12/15 06:53:00;;;;;;;9.80;7.20;;;;;;;4.65;83.16;94877.91;5108499;27;20126;-73
2023/12/15 06:55:26;;;;;;;9.50;7.22;;;;;;;4.84;83.05;94887.09;5110390;28;20032;-73
2023/12/15 06:57:51;;;;;;;9.77;7.55;;;;;;;4.91;84.11;94891.78;5111231;27;20035;-73
2023/12/15 07:00:17;;;;;;;12.43;8.35;;;;;;;4.77;83.64;94908.97;5099772;27;20444;-73
2023/12/15 07:02:42;;;;;;;11.07;8.15;;;;;;;4.69;83.93;94912.00;5115940;27;20088;-73
2023/12/15 07:05:08;;;;;;;10.07;8.02;;;;;;;4.59;83.97;94895.41;5108871;27;20378;-73
2023/12/15 07:07:33;;;;;;;9.80;7.80;;;;;;;4.69;84.10;94912.00;5102322;28;20535;-73
2023/12/15 07:09:59;;;;;;;9.82;7.20;;;;;;;4.67;84.23;94903.53;5094448;28;20032;-73
2023/12/15 07:12:24;;;;;;;9.48;7.05;;;;;;;4.75;84.12;94916.78;5110175;28;20488;-72
2023/12/15 07:14:50;;;;;;;8.48;6.90;;;;;;;4.79;84.08;94918.25;5110382;28;20020;-73
2023/12/15 07:17:15;;;;;;;8.55;6.38;;;;;;;4.74;84.02;94917.69;5120941;27;20027;-73
2023/12/15 07:19:41;;;;;;;8.43;6.28;;;;;;;4.56;84.14;94904.13;5128058;27;20027;-73
2023/12/15 07:22:06;;;;;;;9.00;6.97;;;;;;;4.55;84.48;94914.53;5128819;27;20084;-73
2023/12/15 07:24:34;;;;;;;8.18;6.10;;;;;;;4.64;84.18;94922.53;5093468;28;20027;-73
2023/12/15 07:26:59;;;;;;;8.23;5.97;;;;;;;4.41;85.06;94912.75;5112050;28;20042;-72
2023/12/15 07:29:24;;;;;;;7.60;5.57;;;;;;;4.47;85.18;94920.94;5089504;28;20028;-72
2023/12/15 07:31:50;;;;;;;7.68;5.45;;;;;;;4.42;85.79;94927.25;5096902;28;20564;-73
2023/12/15 07:34:15;;;;;;;15.25;10.70;;;;;;;4.24;85.72;94895.72;5094985;28;20448;-73
2023/12/15 07:36:41;;;;;;;12.07;8.07;;;;;;;4.51;85.21;94929.28;5098827;28;20456;-73
2023/12/15 07:39:07;;;;;;;15.50;11.50;;;;;;;4.58;84.86;94925.47;5092046;28;20085;-73
2023/12/15 07:41:32;;;;;;;21.98;18.58;;;;;;;4.64;84.62;94950.03;5090006;28;20051;-73
2023/12/15 07:43:58;;;;;;;8.65;7.38;;;;;;;4.63;84.48;94940.66;5093024;28;20118;-73
2023/12/15 07:46:23;;;;;;;10.18;8.38;;;;;;;4.68;84.15;94938.63;5107620;28;20486;-73
2023/12/15 07:48:50;;;;;;;9.63;6.97;;;;;;;4.62;83.79;94932.09;5076600;28;20027;-73
2023/12/15 07:51:24;;;;;;;10.55;8.50;;;;;;;4.67;83.87;94945.53;5093966;28;20051;-73
2023/12/15 07:53:50;;;;;;;10.15;7.13;;;;;;;4.75;84.35;94957.13;5106953;28;20485;-72
2023/12/15 07:56:26;;;;;;;8.88;6.90;;;;;;;4.64;84.77;94960.31;5101400;28;20048;-72
2023/12/15 07:58:52;;;;;;;8.68;5.97;;;;;;;4.75;84.61;94957.94;5090638;28;20140;-70
2023/12/15 08:01:20;;;;;;;8.80;6.40;;;;;;;4.71;83.99;94961.63;5094043;28;20051;-73
2023/12/15 08:03:46;;;;;;;10.00;7.32;;;;;;;4.75;84.55;94968.25;5116868;28;20154;-74
2023/12/15 08:06:13;;;;;;;7.03;6.32;;;;;;;4.91;84.11;94963.06;5108144;28;20119;-73
2023/12/15 08:08:42;;;;;;;9.40;5.45;;;;;;;4.93;84.20;94994.66;5108764;28;20497;-73
2023/12/15 08:11:07;;;;;;;7.57;5.35;;;;;;;4.89;83.89;94994.03;5110290;28;20416;-73
2023/12/15 08:13:32;;;;;;;7.03;5.13;;;;;;;4.98;83.36;94999.56;5106619;28;20023;-74
2023/12/15 08:15:58;;;;;;;8.70;5.35;;;;;;;4.85;83.56;95005.41;5107857;27;20020;-74
2023/12/15 08:18:23;;;;;;;6.47;5.05;;;;;;;4.95;83.86;95000.56;5095019;28;20464;-74
2023/12/15 08:20:50;;;;;;;6.88;5.22;;;;;;;4.85;84.14;95002.84;5076127;28;20032;-74
2023/12/15 08:23:15;;;;;;;7.10;5.90;;;;;;;4.75;84.21;95000.88;5092847;28;20047;-74
2023/12/15 08:25:40;;;;;;;7.80;5.40;;;;;;;4.93;83.76;95003.25;5093085;28;20429;-74
2023/12/15 08:28:09;;;;;;;7.35;5.50;;;;;;;5.01;82.98;95010.50;5083235;28;20443;-73
2023/12/15 08:30:35;;;;;;;6.20;4.78;;;;;;;4.81;84.05;95013.41;5083630;28;20035;-73
2023/12/15 08:33:01;;;;;;;11.27;6.90;;;;;;;4.81;84.17;94988.47;5077572;28;20041;-74
2023/12/15 08:35:27;;;;;;;9.75;5.90;;;;;;;4.89;83.76;95011.22;5109719;28;20032;-73
2023/12/15 08:37:54;;;;;;;10.32;7.70;;;;;;;4.87;83.72;95001.00;5107067;27;20512;-72
2023/12/15 08:40:20;;;;;;;12.32;8.27;;;;;;;5.00;83.40;95018.31;5076085;28;20062;-73
2023/12/15 08:42:45;;;;;;;11.23;8.07;;;;;;;4.89;83.62;94999.16;5096635;27;20402;-73
2023/12/15 08:45:10;;;;;;;15.25;10.82;;;;;;;5.13;83.72;95025.25;5112329;27;20036;-73
2023/12/15 08:47:36;;;;;;;13.95;8.63;;;;;;;5.17;83.57;95028.47;5072971;28;20032;-73
2023/12/15 08:50:02;;;;;;;10.20;7.22;;;;;;;5.17;83.36;95027.66;5113001;28;20035;-73
2023/12/15 08:52:28;;;;;;;12.60;6.97;;;;;;;5.21;83.30;95022.25;5114630;28;20115;-73
2023/12/15 08:54:53;;;;;;;8.10;5.95;;;;;;;5.06;83.39;95020.53;5094736;28;20031;-74
2023/12/15 08:57:19;;;;;;;9.35;6.28;;;;;;;4.74;83.58;94997.50;5092588;28;20027;-73
2023/12/15 08:59:44;;;;;;;9.35;6.38;;;;;;;5.24;83.17;95022.06;5099846;28;20043;-73
2023/12/15 09:02:11;;;;;;;10.75;7.65;;;;;;;5.05;83.87;95024.88;5075349;28;20051;-73
2023/12/15 09:04:36;;;;;;;9.75;7.50;;;;;;;5.11;82.70;95014.22;5092507;28;20051;-74
2023/12/15 09:07:02;;;;;;;7.82;6.88;;;;;;;5.27;82.64;95023.63;5058779;28;20043;-73
2023/12/15 09:09:27;;;;;;;8.95;6.97;;;;;;;5.35;82.63;95022.25;5104603;28;20032;-74
2023/12/15 09:11:53;;;;;;;7.70;5.13;;;;;;;5.45;82.19;95017.38;5084902;28;20028;-73
2023/12/15 09:14:21;;;;;;;12.27;6.72;;;;;;;5.56;81.81;95014.16;5105012;28;20034;-73
2023/12/15 09:16:47;;;;;;;8.55;5.97;;;;;;;5.53;82.36;95028.06;5099280;28;20085;-73
2023/12/15 09:19:13;;;;;;;10.32;5.78;;;;;;;5.49;81.99;95011.13;5105581;28;20024;-70
2023/12/15 09:21:38;;;;;;;11.23;6.38;;;;;;;5.52;82.15;95012.69;5066796;28;20089;-70
2023/12/15 09:24:04;;;;;;;9.27;6.00;;;;;;;5.37;82.30;95006.69;5074839;28;20036;-73
2023/12/15 09:26:29;;;;;;;13.18;7.30;;;;;;;5.31;83.01;95007.06;5094672;28;20047;-73
2023/12/15 09:28:55;;;;;;;12.90;8.77;;;;;;;5.16;83.09;95021.69;5105338;28;20405;-73
2023/12/15 09:31:20;;;;;;;14.27;10.73;;;;;;;5.26;83.65;95015.06;5092004;28;20040;-73
2023/12/15 09:33:45;;;;;;;14.95;10.85;;;;;;;5.31;82.78;95007.88;5092077;28;20411;-73
2023/12/15 09:36:11;;;;;;;13.95;9.38;;;;;;;5.35;82.99;95014.53;5112067;28;20035;-73
2023/12/15 09:38:36;;;;;;;14.77;8.52;;;;;;;5.31;83.11;95015.63;5089323;28;20047;-73
2023/12/15 09:41:02;;;;;;;10.80;8.02;;;;;;;5.29;83.53;95014.91;5083302;28;20418;-73
2023/12/15 09:43:27;;;;;;;11.57;8.25;;;;;;;5.30;83.78;95013.16;5086401;28;20039;-73
2023/12/15 09:45:53;;;;;;;12.30;7.90;;;;;;;5.26;84.00;95014.22;5112059;28;20034;-73
2023/12/15 09:48:19;;;;;;;12.95;8.73;;;;;;;5.21;84.26;95006.78;5071946;28;20477;-74
2023/12/15 09:50:47;;;;;;;10.40;8.02;;;;;;;5.20;83.79;95015.41;5090721;28;20059;-74
2023/12/15 09:53:13;;;;;;;14.75;10.23;;;;;;;5.21;84.24;95006.78;5075161;28;20536;-73
2023/12/15 09:55:38;;;;;;;13.32;9.25;;;;;;;5.17;84.01;95019.94;5058031;28;20216;-74
2023/12/15 09:58:04;;;;;;;10.77;7.70;;;;;;;4.87;84.37;95010.47;5097056;28;20431;-74
2023/12/15 10:00:30;;;;;;;11.57;7.15;;;;;;;5.09;84.67;95022.94;5102873;28;20050;-74
2023/12/15 10:02:55;;;;;;;12.40;7.18;;;;;;;5.25;84.55;95022.88;5108500;28;20076;-74
2023/12/15 10:05:21;;;;;;;12.13;8.15;;;;;;;5.31;84.06;95020.75;5074392;28;20036;-74
2023/12/15 10:07:46;;;;;;;12.07;7.85;;;;;;;5.35;84.01;95018.84;5087006;28;20477;-74
2023/12/15 10:10:12;;;;;;;10.63;7.00;;;;;;;5.41;83.16;95015.09;5081265;28;20032;-74
2023/12/15 10:12:37;;;;;;;10.98;7.20;;;;;;;5.62;83.44;95034.41;5091005;28;20184;-75
2023/12/15 10:15:03;;;;;;;12.40;7.35;;;;;;;5.56;83.87;95024.47;5102748;28;20044;-74
2023/12/15 10:17:28;;;;;;;9.52;6.95;;;;;;;5.53;83.50;95025.47;5077510;28;20066;-74
2023/12/15 10:20:10;;;;;;;9.10;6.53;;;;;;;5.63;83.70;95028.34;5111771;28;20028;-75
2023/12/15 10:22:38;;;;;;;11.98;7.57;;;;;;;5.48;83.73;95036.97;5095460;28;20032;-74
2023/12/15 10:25:19;;;;;;;58.83;33.15;;;;;;;5.16;84.54;95037.13;5078128;28;20053;-75
2023/12/15 10:27:45;;;;;;;26.38;16.50;;;;;;;5.45;84.37;95037.16;5111446;28;20095;-73
2023/12/15 10:30:11;;;;;;;24.08;16.13;;;;;;;5.52;83.99;95039.28;5111187;28;20483;-73
2023/12/15 10:32:36;;;;;;;23.38;15.18;;;;;;;5.55;84.25;95044.25;5094181;28;20027;-73
2023/12/15 10:35:02;;;;;;;22.10;14.63;;;;;;;5.60;84.29;95036.28;5090269;28;20386;-74
2023/12/15 10:37:27;;;;;;;19.17;13.57;;;;;;;5.59;84.06;95044.91;5089057;28;20043;-73
2023/12/15 10:39:54;;;;;;;24.77;15.23;;;;;;;5.39;84.80;95035.78;5107071;28;20038;-74
2023/12/15 10:42:20;;;;;;;15.15;10.95;;;;;;;5.69;84.04;95042.63;5089509;28;20036;-73
2023/12/15 10:44:45;;;;;;;13.75;9.57;;;;;;;5.71;83.53;95033.88;5093973;28;20424;-73
2023/12/15 10:47:11;;;;;;;12.23;8.38;;;;;;;5.83;83.12;95048.59;5093872;28;20028;-73
2023/12/15 10:49:36;;;;;;;17.67;11.43;;;;;;;5.75;83.22;95040.50;5110951;28;20028;-74
2023/12/15 10:52:02;;;;;;;13.13;9.70;;;;;;;5.93;83.11;95058.34;5094040;28;20042;-73
2023/12/15 10:54:27;;;;;;;10.57;6.88;;;;;;;5.92;82.84;95057.53;5093867;28;20106;-73
2023/12/15 10:56:54;;;;;;;9.40;6.63;;;;;;;5.92;82.77;95059.28;5094013;28;20386;-73
2023/12/15 10:59:19;;;;;;;8.90;6.65;;;;;;;5.88;82.46;95056.06;5111953;27;20031;-73
2023/12/15 11:01:46;;;;;;;9.95;6.70;;;;;;;6.00;82.54;95067.41;5092089;28;20040;-74
2023/12/15 11:04:30;;;;;;;15.40;10.05;;;;;;;5.61;83.08;95061.13;5093795;28;20016;-74
2023/12/15 11:06:56;;;;;;;24.58;13.73;;;;;;;5.67;82.42;95065.91;5093966;28;20295;-73
2023/12/15 11:09:32;;;;;;;20.60;13.32;;;;;;;5.65;82.64;95059.19;5093624;28;20110;-73
2023/12/15 11:12:39;;;;;;;32.00;17.10;;;;;;;5.38;82.21;95055.56;5110652;28;20040;-73
2023/12/15 11:15:18;;;;;;;20.35;12.80;;;;;;;5.35;82.13;95057.50;5063697;28;20131;-72
2023/12/15 11:17:47;;;;;;;18.92;12.02;;;;;;;5.53;81.40;95040.94;5094053;28;20098;-73
2023/12/15 11:20:18;;;;;;;26.58;15.10;;;;;;;5.71;81.12;95051.06;5093738;28;20072;-73
2023/12/15 11:22:49;;;;;;;23.27;14.23;;;;;;;5.73;81.18;95062.13;5111611;28;20485;-73
2023/12/15 11:25:18;;;;;;;24.23;15.30;;;;;;;5.70;81.64;95050.25;5111422;28;20031;-73
2023/12/15 11:28:00;;;;;;;25.75;15.05;;;;;;;5.82;81.74;95075.31;5110301;28;20085;-73
2023/12/15 11:30:29;;;;;;;19.00;13.35;;;;;;;5.75;81.66;95083.50;5107255;28;20042;-72
2023/12/15 11:32:55;;;;;;;18.33;11.45;;;;;;;5.48;81.71;95042.97;5108878;28;20035;-72
2023/12/15 11:35:51;;;;;;;17.92;10.85;;;;;;;5.60;81.96;95095.53;5104750;28;20043;-73